createdAt,value
2023-01-28T00:00:27.184Z,94295.31
2023-01-28T00:03:10.267Z,94297.97
2023-01-28T00:05:55.229Z,94300.84
2023-01-28T00:08:38.358Z,94296.75
2023-01-28T00:11:26.050Z,94299.22
2023-01-28T00:14:09.240Z,94314.88
2023-01-28T00:16:52.522Z,94308.25
2023-01-28T00:19:35.606Z,94323.84
2023-01-28T00:22:18.736Z,94327.03
2023-01-28T00:25:01.740Z,94319.66
2023-01-28T00:27:49.939Z,94320.78
2023-01-28T00:30:33.097Z,94329.88
2023-01-28T00:33:19.272Z,94325.09
2023-01-28T00:36:05.974Z,94320.69
2023-01-28T00:38:51.784Z,94335.00
2023-01-28T00:41:34.974Z,94332.69
2023-01-28T00:44:19.928Z,94339.66
2023-01-28T00:47:03.130Z,94337.72
2023-01-28T00:49:46.264Z,94339.03
2023-01-28T00:52:30.032Z,94334.03
2023-01-28T00:55:13.399Z,94332.06
2023-01-28T00:57:57.012Z,94331.09
2023-01-28T01:00:41.643Z,94341.41
2023-01-28T01:03:27.001Z,94323.25
2023-01-28T01:06:10.618Z,94332.69
2023-01-28T01:08:56.721Z,94340.34
2023-01-28T01:11:42.398Z,94345.22
2023-01-28T01:14:25.551Z,94340.88
2023-01-28T01:17:10.005Z,94331.81
2023-01-28T01:19:53.181Z,94341.31
2023-01-28T01:22:36.610Z,94334.38
2023-01-28T01:25:20.780Z,94339.47
2023-01-28T01:28:06.240Z,94339.03
2023-01-28T01:30:52.785Z,94333.41
2023-01-28T01:33:37.810Z,94344.50
2023-01-28T01:36:22.282Z,94346.25
2023-01-28T01:39:05.478Z,94345.56
2023-01-28T01:41:51.379Z,94351.03
2023-01-28T01:45:07.336Z,94341.06
2023-01-28T01:48:03.936Z,94346.97
2023-01-28T01:50:54.112Z,94347.69
2023-01-28T01:53:39.678Z,94335.41
2023-01-28T01:56:28.639Z,94353.31
2023-01-28T01:59:16.003Z,94356.75
2023-01-28T02:02:02.570Z,94356.50
2023-01-28T02:04:46.634Z,94363.69
2023-01-28T02:07:34.318Z,94369.97
2023-01-28T02:10:18.375Z,94368.31
2023-01-28T02:13:01.808Z,94354.09
2023-01-28T02:15:45.937Z,94358.16
2023-01-28T02:18:29.154Z,94364.16
2023-01-28T02:21:37.810Z,94360.81
2023-01-28T02:24:37.950Z,94376.75
2023-01-28T02:27:28.619Z,94366.16
2023-01-28T02:30:21.373Z,94377.66
2023-01-28T02:33:10.229Z,94379.03
2023-01-28T02:35:56.014Z,94374.81
2023-01-28T02:38:44.096Z,94372.88
2023-01-28T02:41:33.054Z,94374.81
2023-01-28T02:44:16.269Z,94374.63
2023-01-28T02:47:22.124Z,94378.22
2023-01-28T02:50:08.688Z,94380.63
2023-01-28T02:53:20.015Z,94374.28
2023-01-28T02:56:14.152Z,94369.50
2023-01-28T02:59:24.972Z,94380.13
2023-01-28T03:02:19.161Z,94375.25
2023-01-28T03:05:07.909Z,94380.19
2023-01-28T03:07:51.995Z,94376.66
2023-01-28T03:10:34.568Z,94381.59
2023-01-28T03:13:37.487Z,94376.66
2023-01-28T03:16:38.175Z,94381.00
2023-01-28T03:19:42.060Z,94383.88
2023-01-28T03:22:45.071Z,94384.22
2023-01-28T03:25:46.588Z,94392.59
2023-01-28T03:28:48.600Z,94383.25
2023-01-28T03:31:50.393Z,94380.28
2023-01-28T03:34:52.422Z,94379.47
2023-01-28T03:37:36.657Z,94391.28
2023-01-28T03:40:20.547Z,94396.09
2023-01-28T03:43:04.422Z,94397.34
2023-01-28T03:45:51.384Z,94386.25
2023-01-28T03:48:34.766Z,94382.63
2023-01-28T03:51:22.995Z,94385.69
2023-01-28T03:54:06.483Z,94391.00
2023-01-28T03:56:49.956Z,94390.66
2023-01-28T03:59:33.571Z,94398.50
2023-01-28T04:02:17.415Z,94397.84
2023-01-28T04:05:07.164Z,94396.41
2023-01-28T04:07:55.917Z,94400.50
2023-01-28T04:10:42.063Z,94400.50
2023-01-28T04:13:25.437Z,94410.72
2023-01-28T04:16:11.164Z,94406.00
2023-01-28T04:18:54.340Z,94407.91
2023-01-28T04:21:37.617Z,94415.56
2023-01-28T04:24:22.941Z,94409.84
2023-01-28T04:27:06.217Z,94414.94
2023-01-28T04:29:49.266Z,94413.47
2023-01-28T04:32:32.446Z,94415.41
2023-01-28T04:35:17.796Z,94418.13
2023-01-28T04:38:03.342Z,94418.53
2023-01-28T04:40:51.132Z,94426.56
2023-01-28T04:43:34.432Z,94428.75
2023-01-28T04:46:17.790Z,94415.53
2023-01-28T04:49:01.044Z,94435.50
2023-01-28T04:51:45.378Z,94445.06
2023-01-28T04:54:30.883Z,94442.69
2023-01-28T04:57:16.738Z,94446.63
2023-01-28T05:00:00.221Z,94443.91
2023-01-28T05:02:43.397Z,94451.09
2023-01-28T05:05:29.637Z,94454.59
2023-01-28T05:08:12.805Z,94458.13
2023-01-28T05:11:04.684Z,94459.72
2023-01-28T05:13:49.155Z,94462.66
2023-01-28T05:16:34.472Z,94465.50
2023-01-28T05:19:17.568Z,94470.25
2023-01-28T05:22:00.709Z,94461.97
2023-01-28T05:24:46.632Z,94475.38
2023-01-28T05:27:29.754Z,94472.53
2023-01-28T05:30:14.970Z,94476.69
2023-01-28T05:32:58.668Z,94461.31
2023-01-28T05:35:41.857Z,94476.09
2023-01-28T05:38:24.934Z,94475.16
2023-01-28T05:41:08.127Z,94470.63
2023-01-28T05:43:51.423Z,94473.34
2023-01-28T05:46:36.000Z,94471.22
2023-01-28T05:49:21.254Z,94475.09
2023-01-28T05:52:06.729Z,94477.44
2023-01-28T05:54:49.941Z,94484.09
2023-01-28T05:57:35.638Z,94490.81
2023-01-28T06:00:19.872Z,94486.59
2023-01-28T06:03:05.454Z,94486.06
2023-01-28T06:05:49.976Z,94498.78
2023-01-28T06:08:33.085Z,94507.94
2023-01-28T06:11:16.563Z,94507.09
2023-01-28T06:14:00.784Z,94511.88
2023-01-28T06:16:44.194Z,94519.28
2023-01-28T06:19:28.934Z,94521.16
2023-01-28T06:22:12.180Z,94531.28
2023-01-28T06:24:56.122Z,94536.47
2023-01-28T06:27:39.359Z,94537.59
2023-01-28T06:30:23.082Z,94527.69
2023-01-28T06:33:12.875Z,94535.72
2023-01-28T06:35:59.671Z,94534.59
2023-01-28T06:38:43.017Z,94543.19
2023-01-28T06:41:29.163Z,94541.88
2023-01-28T06:44:14.973Z,94546.25
2023-01-28T06:46:58.138Z,94552.03
2023-01-28T06:49:41.280Z,94552.03
2023-01-28T06:52:29.162Z,94549.19
2023-01-28T06:55:13.054Z,94551.25
2023-01-28T06:57:56.263Z,94563.19
2023-01-28T07:00:39.878Z,94560.28
2023-01-28T07:03:23.050Z,94570.38
2023-01-28T07:06:07.436Z,94573.25
2023-01-28T07:08:52.135Z,94571.88
2023-01-28T07:11:35.238Z,94573.69
2023-01-28T07:14:18.580Z,94573.41
2023-01-28T07:17:01.799Z,94581.53
2023-01-28T07:19:45.042Z,94592.56
2023-01-28T07:22:29.208Z,94595.38
2023-01-28T07:25:15.404Z,94599.97
2023-01-28T07:27:58.507Z,94606.22
2023-01-28T07:30:41.665Z,94614.28
2023-01-28T07:33:26.722Z,94611.88
2023-01-28T07:36:11.474Z,94618.69
2023-01-28T07:38:54.635Z,94620.94
2023-01-28T07:41:39.163Z,94618.78
2023-01-28T07:44:22.276Z,94607.59
2023-01-28T07:47:06.565Z,94614.22
2023-01-28T07:49:49.806Z,94617.09
2023-01-28T07:52:40.985Z,94624.72
2023-01-28T07:55:24.411Z,94622.31
2023-01-28T07:58:09.876Z,94630.53
2023-01-28T08:00:53.040Z,94631.97
2023-01-28T08:03:37.762Z,94623.69
2023-01-28T08:06:20.964Z,94620.88
2023-01-28T08:09:07.969Z,94623.59
2023-01-28T08:11:53.567Z,94641.03
2023-01-28T08:14:38.202Z,94641.28
2023-01-28T08:17:21.373Z,94640.03
2023-01-28T08:20:04.703Z,94635.91
2023-01-28T08:22:47.822Z,94640.81
2023-01-28T08:25:31.021Z,94646.31
2023-01-28T08:28:17.760Z,94652.03
2023-01-28T08:31:03.027Z,94643.59
2023-01-28T08:33:46.302Z,94651.19
2023-01-28T08:36:29.416Z,94652.50
2023-01-28T08:39:16.461Z,94649.53
2023-01-28T08:42:00.004Z,94649.88
2023-01-28T08:44:43.513Z,94650.91
2023-01-28T08:47:28.188Z,94650.75
2023-01-28T08:50:12.106Z,94649.25
2023-01-28T08:53:00.048Z,94654.09
2023-01-28T08:55:43.650Z,94650.38
2023-01-28T08:58:28.649Z,94645.00
2023-01-28T09:01:11.728Z,94650.22
2023-01-28T09:03:56.420Z,94652.78
2023-01-28T09:06:39.503Z,94655.00
2023-01-28T09:09:24.271Z,94642.84
2023-01-28T09:12:08.585Z,94650.91
2023-01-28T09:14:52.350Z,94650.91
2023-01-28T09:17:35.540Z,94655.16
2023-01-28T09:20:20.309Z,94654.69
2023-01-28T09:23:04.579Z,94654.34
2023-01-28T09:25:47.967Z,94659.06
2023-01-28T09:28:34.007Z,94667.00
2023-01-28T09:31:19.499Z,94653.91
2023-01-28T09:34:04.166Z,94651.34
2023-01-28T09:36:51.388Z,94658.06
2023-01-28T09:39:34.718Z,94664.94
2023-01-28T09:42:32.377Z,94659.81
2023-01-28T09:45:21.896Z,94648.38
2023-01-28T09:48:07.843Z,94659.41
2023-01-28T09:50:54.770Z,94654.66
2023-01-28T09:53:47.769Z,94651.81
2023-01-28T09:56:35.791Z,94652.00
2023-01-28T09:59:26.277Z,94655.94
2023-01-28T10:02:44.934Z,94657.75
2023-01-28T10:05:39.223Z,94650.84
2023-01-28T10:08:36.419Z,94647.09
2023-01-28T10:11:29.538Z,94653.94
2023-01-28T10:14:21.337Z,94646.28
2023-01-28T10:17:13.298Z,94650.84
2023-01-28T10:20:00.417Z,94642.38
2023-01-28T10:22:48.090Z,94635.81
2023-01-28T10:25:35.697Z,94647.69
2023-01-28T10:28:27.625Z,94650.34
2023-01-28T10:31:14.281Z,94643.56
2023-01-28T10:33:57.506Z,94649.72
2023-01-28T10:36:41.041Z,94645.59
2023-01-28T10:39:25.968Z,94651.63
2023-01-28T10:42:24.618Z,94647.41
2023-01-28T10:45:19.748Z,94640.84
2023-01-28T10:48:09.143Z,94647.78
2023-01-28T10:50:53.724Z,94642.00
2023-01-28T10:53:41.119Z,94640.09
2023-01-28T10:56:27.812Z,94654.97
2023-01-28T10:59:22.109Z,94639.38
2023-01-28T11:02:23.623Z,94643.78
2023-01-28T11:05:18.152Z,94637.91
2023-01-28T11:08:08.761Z,94643.97
2023-01-28T11:10:54.965Z,94638.44
2023-01-28T11:13:53.371Z,94632.00
2023-01-28T11:16:36.556Z,94629.50
2023-01-28T11:22:23.449Z,94627.94
2023-01-28T11:25:19.458Z,94634.00
2023-01-28T11:28:05.726Z,94618.22
2023-01-28T11:30:54.522Z,94615.59
2023-01-28T11:33:40.603Z,94608.53
2023-01-28T11:36:28.323Z,94621.41
2023-01-28T11:39:23.765Z,94624.63
2023-01-28T11:42:17.226Z,94627.53
2023-01-28T11:45:03.193Z,94631.50
2023-01-28T11:47:58.948Z,94623.66
2023-01-28T11:50:52.220Z,94623.53
2023-01-28T11:54:01.232Z,94622.75
2023-01-28T11:57:03.859Z,94621.63
2023-01-28T12:00:08.270Z,94630.31
2023-01-28T12:02:55.439Z,94625.91
2023-01-28T12:05:51.169Z,94633.28
2023-01-28T12:08:40.680Z,94626.69
2023-01-28T12:11:53.955Z,94622.66
2023-01-28T12:14:52.791Z,94632.72
2023-01-28T12:17:47.737Z,94633.78
2023-01-28T12:20:39.229Z,94637.94
2023-01-28T12:23:40.043Z,94630.66
2023-01-28T12:26:35.937Z,94628.28
2023-01-28T12:29:28.393Z,94629.50
2023-01-28T12:32:24.814Z,94626.69
2023-01-28T12:35:34.407Z,94634.03
2023-01-28T12:38:27.734Z,94644.09
2023-01-28T12:41:15.976Z,94650.44
2023-01-28T12:44:03.911Z,94638.22
2023-01-28T12:46:55.511Z,94645.91
2023-01-28T12:49:44.104Z,94655.28
2023-01-28T12:52:34.297Z,94653.47
2023-01-28T12:55:22.053Z,94654.81
2023-01-28T12:58:08.893Z,94662.28
2023-01-28T13:01:01.403Z,94650.03
2023-01-28T13:03:53.058Z,94650.25
2023-01-28T13:06:42.892Z,94655.81
2023-01-28T13:09:28.146Z,94663.88
2023-01-28T13:12:13.892Z,94668.63
2023-01-28T13:15:00.485Z,94674.59
2023-01-28T13:18:00.347Z,94665.50
2023-01-28T13:20:50.428Z,94661.72
2023-01-28T13:23:41.872Z,94672.25
2023-01-28T13:26:45.832Z,94673.44
2023-01-28T13:29:34.759Z,94674.25
2023-01-28T13:32:33.611Z,94684.44
2023-01-28T13:35:35.489Z,94686.19
2023-01-28T13:38:21.543Z,94686.75
2023-01-28T13:41:06.656Z,94685.94
2023-01-28T13:43:51.081Z,94692.19
2023-01-28T13:46:34.706Z,94687.72
2023-01-28T13:49:24.940Z,94696.22
2023-01-28T13:52:19.617Z,94704.72
2023-01-28T13:55:07.335Z,94708.84
2023-01-28T13:58:26.069Z,94708.34
2023-01-28T14:01:39.993Z,94707.00
2023-01-28T14:04:56.672Z,94713.38
2023-01-28T14:08:18.145Z,94717.91
2023-01-28T14:11:17.800Z,94710.19
2023-01-28T14:14:34.845Z,94723.00
2023-01-28T14:17:26.964Z,94727.59
2023-01-28T14:20:18.868Z,94741.41
2023-01-28T14:23:06.451Z,94740.03
2023-01-28T14:26:02.358Z,94735.97
2023-01-28T14:28:52.690Z,94736.56
2023-01-28T14:31:39.325Z,94741.63
2023-01-28T14:34:28.782Z,94736.31
2023-01-28T14:37:14.969Z,94735.94
2023-01-28T14:40:02.755Z,94744.69
2023-01-28T14:42:49.201Z,94746.16
2023-01-28T14:45:52.750Z,94753.22
2023-01-28T14:48:44.673Z,94749.13
2023-01-28T14:51:49.725Z,94754.72
2023-01-28T14:54:55.387Z,94754.63
2023-01-28T14:57:58.451Z,94758.34
2023-01-28T15:00:43.960Z,94752.97
2023-01-28T15:03:28.471Z,94763.22
2023-01-28T15:06:16.286Z,94756.66
2023-01-28T15:09:08.928Z,94766.47
2023-01-28T15:11:59.954Z,94769.88
2023-01-28T15:14:47.961Z,94778.88
2023-01-28T15:17:32.116Z,94770.88
2023-01-28T15:20:20.407Z,94783.03
2023-01-28T15:23:07.622Z,94771.81
2023-01-28T15:25:51.773Z,94782.16
2023-01-28T15:28:38.123Z,94777.38
2023-01-28T15:31:25.955Z,94787.63
2023-01-28T15:34:15.913Z,94770.66
2023-01-28T15:37:00.339Z,94789.22
2023-01-28T15:39:44.708Z,94790.34
2023-01-28T15:42:30.432Z,94781.59
2023-01-28T15:45:18.328Z,94804.44
2023-01-28T15:48:09.241Z,94803.97
2023-01-28T15:51:01.368Z,94809.09
2023-01-28T15:53:47.149Z,94801.94
2023-01-28T15:56:31.780Z,94812.09
2023-01-28T15:59:21.068Z,94810.78
2023-01-28T16:02:21.768Z,94813.28
2023-01-28T16:05:10.588Z,94828.22
2023-01-28T16:07:54.402Z,94823.28
2023-01-28T16:10:38.836Z,94821.75
2023-01-28T16:13:26.067Z,94840.91
2023-01-28T16:16:12.807Z,94832.22
2023-01-28T16:18:59.627Z,94822.94
2023-01-28T16:21:47.656Z,94839.88
2023-01-28T16:24:32.915Z,94838.47
2023-01-28T16:27:26.143Z,94839.63
2023-01-28T16:30:13.207Z,94844.88
2023-01-28T16:33:01.573Z,94847.59
2023-01-28T16:36:04.673Z,94847.25
2023-01-28T16:38:51.145Z,94850.13
2023-01-28T16:41:42.374Z,94847.59
2023-01-28T16:44:25.598Z,94845.38
2023-01-28T16:47:10.056Z,94846.13
2023-01-28T16:49:53.192Z,94842.47
2023-01-28T16:52:39.171Z,94856.03
2023-01-28T16:55:27.139Z,94850.47
2023-01-28T16:58:12.919Z,94852.38
2023-01-28T17:00:56.289Z,94861.31
2023-01-28T17:03:40.347Z,94868.50
2023-01-28T17:06:25.564Z,94872.56
2023-01-28T17:09:10.771Z,94867.13
2023-01-28T17:11:55.282Z,94871.59
2023-01-28T17:14:39.352Z,94871.25
2023-01-28T17:17:25.590Z,94880.81
2023-01-28T17:20:10.285Z,94876.00
2023-01-28T17:22:53.438Z,94879.78
2023-01-28T17:25:40.142Z,94889.69
2023-01-28T17:28:27.460Z,94883.63
2023-01-28T17:31:15.488Z,94890.34
2023-01-28T17:34:00.219Z,94886.00
2023-01-28T17:36:45.121Z,94889.34
2023-01-28T17:39:30.697Z,94892.72
2023-01-28T17:42:14.206Z,94896.44
2023-01-28T17:45:03.266Z,94894.97
2023-01-28T17:47:49.785Z,94888.59
2023-01-28T17:50:34.618Z,94903.34
2023-01-28T17:53:18.052Z,94901.88
2023-01-28T17:56:01.431Z,94909.59
2023-01-28T17:58:45.476Z,94902.56
2023-01-28T18:01:33.350Z,94905.91
2023-01-28T18:04:18.777Z,94907.38
2023-01-28T18:07:01.950Z,94909.00
2023-01-28T18:09:48.945Z,94903.72
2023-01-28T18:12:32.235Z,94915.84
2023-01-28T18:15:17.482Z,94907.91
2023-01-28T18:18:05.488Z,94908.38
2023-01-28T18:21:00.144Z,94921.47
2023-01-28T18:23:44.862Z,94913.81
2023-01-28T18:26:28.356Z,94916.38
2023-01-28T18:29:16.973Z,94924.69
2023-01-28T18:32:01.391Z,94924.22
2023-01-28T18:34:46.108Z,94924.38
2023-01-28T18:37:29.266Z,94914.34
2023-01-28T18:40:14.416Z,94926.28
2023-01-28T18:43:00.508Z,94927.56
2023-01-28T18:45:47.125Z,94933.97
2023-01-28T18:48:31.090Z,94929.47
2023-01-28T18:51:29.438Z,94930.09
2023-01-28T18:54:17.212Z,94940.38
2023-01-28T18:57:01.726Z,94928.50
2023-01-28T18:59:48.426Z,94925.00
2023-01-28T19:02:34.488Z,94925.00
2023-01-28T19:05:18.269Z,94925.16
2023-01-28T19:08:02.719Z,94923.88
2023-01-28T19:10:56.183Z,94930.75
2023-01-28T19:13:39.744Z,94938.91
2023-01-28T19:16:26.230Z,94934.94
2023-01-28T19:19:11.410Z,94933.50
2023-01-28T19:21:56.293Z,94945.16
2023-01-28T19:24:41.210Z,94943.56
2023-01-28T19:27:25.716Z,94950.44
2023-01-28T19:30:12.845Z,94947.72
2023-01-28T19:32:57.790Z,94952.69
2023-01-28T19:35:42.440Z,94950.94
2023-01-28T19:38:27.441Z,94965.28
2023-01-28T19:41:16.322Z,94958.91
2023-01-28T19:44:01.010Z,94967.69
2023-01-28T19:46:44.306Z,94965.63
2023-01-28T19:49:27.689Z,94961.47
2023-01-28T19:52:11.320Z,94962.72
2023-01-28T19:54:54.426Z,94970.09
2023-01-28T19:57:39.036Z,94961.47
2023-01-28T20:00:24.086Z,94966.44
2023-01-28T20:03:08.398Z,94970.59
2023-01-28T20:05:51.644Z,94972.34
2023-01-28T20:08:36.714Z,94971.53
2023-01-28T20:11:23.557Z,94971.19
2023-01-28T20:14:12.320Z,94970.75
2023-01-28T20:16:55.995Z,94979.38
2023-01-28T20:19:40.869Z,94982.38
2023-01-28T20:22:25.907Z,94979.50
2023-01-28T20:25:10.545Z,94972.34
2023-01-28T20:27:53.959Z,94975.84
2023-01-28T20:30:41.618Z,94983.53
2023-01-28T20:33:30.066Z,94983.53
2023-01-28T20:36:16.300Z,94989.91
2023-01-28T20:38:59.696Z,94986.06
2023-01-28T20:41:42.822Z,94994.69
2023-01-28T20:44:26.802Z,95002.69
2023-01-28T20:47:11.518Z,94982.56
2023-01-28T20:49:54.555Z,95002.81
2023-01-28T20:52:37.667Z,95009.09
2023-01-28T20:55:21.637Z,95003.16
2023-01-28T20:58:14.816Z,95009.38
2023-01-28T21:00:58.434Z,95001.25
2023-01-28T21:03:44.650Z,95008.59
2023-01-28T21:06:37.969Z,95018.97
2023-01-28T21:09:22.769Z,95011.00
2023-01-28T21:12:06.639Z,95008.59
2023-01-28T21:14:50.768Z,95015.97
2023-01-28T21:17:36.456Z,95010.69
2023-01-28T21:20:23.765Z,95014.81
2023-01-28T21:23:06.775Z,95021.53
2023-01-28T21:25:50.338Z,95016.75
2023-01-28T21:28:33.880Z,95008.13
2023-01-28T21:31:22.184Z,95022.19
2023-01-28T21:34:05.650Z,95022.50
2023-01-28T21:36:52.754Z,95021.22
2023-01-28T21:39:36.332Z,95022.50
2023-01-28T21:42:19.565Z,95024.28
2023-01-28T21:45:02.785Z,95032.25
2023-01-28T21:47:45.905Z,95021.88
2023-01-28T21:50:29.698Z,95026.03
2023-01-28T21:53:14.364Z,95038.16
2023-01-28T21:55:59.793Z,95039.13
2023-01-28T21:59:01.873Z,95029.19
2023-01-28T22:01:45.090Z,95035.75
2023-01-28T22:04:29.240Z,95028.25
2023-01-28T22:07:17.293Z,95035.59
2023-01-28T22:10:01.810Z,95036.25
2023-01-28T22:12:44.920Z,95044.09
2023-01-28T22:15:27.893Z,95040.41
2023-01-28T22:18:11.158Z,95034.97
2023-01-28T22:21:01.256Z,95035.47
2023-01-28T22:23:44.312Z,95040.06
2023-01-28T22:26:31.593Z,95038.16
2023-01-28T22:29:15.947Z,95034.31
2023-01-28T22:31:59.137Z,95033.38
2023-01-28T22:34:42.527Z,95040.41
2023-01-28T22:37:26.985Z,95038.81
2023-01-28T22:40:11.322Z,95031.16
2023-01-28T22:42:56.135Z,95027.13
2023-01-28T22:45:39.237Z,95026.66
2023-01-28T22:48:24.705Z,95029.38
2023-01-28T22:51:09.791Z,95019.47
2023-01-28T22:53:53.735Z,95024.75
2023-01-28T22:56:36.805Z,95030.19
2023-01-28T22:59:21.700Z,95023.47
2023-01-28T23:02:04.772Z,95027.91
2023-01-28T23:04:48.087Z,95029.19
2023-01-28T23:07:31.135Z,95022.81
2023-01-28T23:10:14.801Z,95031.75
2023-01-28T23:12:58.110Z,95030.97
2023-01-28T23:15:59.872Z,95023.28
2023-01-28T23:19:00.454Z,95021.72
2023-01-28T23:22:00.961Z,95024.75
2023-01-28T23:24:44.127Z,95016.25
2023-01-28T23:27:27.308Z,95022.97
2023-01-28T23:30:12.454Z,95017.88
2023-01-28T23:32:59.325Z,95022.03
2023-01-28T23:35:42.431Z,95018.97
2023-01-28T23:38:25.536Z,95019.63
2023-01-28T23:41:09.071Z,95026.03
2023-01-28T23:43:52.096Z,95017.41
2023-01-28T23:46:39.893Z,95010.69
2023-01-28T23:49:25.467Z,95023.94
2023-01-28T23:52:09.501Z,95012.59
2023-01-28T23:54:52.630Z,95017.22
2023-01-28T23:57:37.192Z,95020.25
